Time;durP1;ratioP1;P1;durP2;ratioP2;P2;SDS_P1;SDS_P2;PMS_P1;PMS_P2;Temp;Humidity;BMP_temperature;BMP_pressure;BME280_temperature;BME280_humidity;BME280_pressure;Samples;Min_cycle;Max_cycle;Signal;HPM_P1;HPM_P2
2023/10/14 00:00:26;;;;;;;1.10;0.20;;;;;;;;;;5054521;28;20492;-67
2023/10/14 00:02:52;;;;;;;1.95;0.40;;;;;;;;;;5054101;28;20041;-65
2023/10/14 00:05:20;;;;;;;2.55;0.38;;;;;;;;;;5053045;28;20052;-68
2023/10/14 00:07:46;;;;;;;2.72;0.63;;;;;;;;;;5053689;28;20096;-65
2023/10/14 00:10:13;;;;;;;1.75;0.32;;;;;;;;;;5052783;28;20080;-65
2023/10/14 00:12:41;;;;;;;1.95;0.30;;;;;;;;;;5053656;28;20037;-67
2023/10/14 00:15:07;;;;;;;2.25;0.40;;;;;;;;;;5053547;28;20408;-67
2023/10/14 00:17:41;;;;;;;6.72;0.73;;;;;;;;;;5053148;28;20041;-67
2023/10/14 00:20:09;;;;;;;2.83;0.50;;;;;;;;;;5052824;28;20041;-67
2023/10/14 00:22:39;;;;;;;1.02;0.60;;;;;;;;;;5052204;28;20114;-67
2023/10/14 00:25:23;;;;;;;2.22;0.70;;;;;;;;;;5053926;28;20056;-67
2023/10/14 00:27:50;;;;;;;4.80;0.70;;;;;;;;;;5052056;28;20068;-67
2023/10/14 00:30:19;;;;;;;1.63;0.60;;;;;;;;;;5066169;28;20044;-67
2023/10/14 00:32:45;;;;;;;2.58;0.80;;;;;;;;;;5073650;28;20040;-66
2023/10/14 00:35:12;;;;;;;3.30;0.90;;;;;;;;;;5074043;28;20133;-65
2023/10/14 00:37:38;;;;;;;1.60;0.70;;;;;;;;;;5055756;28;20124;-66
2023/10/14 00:40:12;;;;;;;4.10;0.75;;;;;;;;;;5055287;28;20045;-66
2023/10/14 00:42:39;;;;;;;4.50;0.80;;;;;;;;;;5073455;28;20377;-67
2023/10/14 00:45:11;;;;;;;3.85;1.00;;;;;;;;;;5073899;28;20048;-65
2023/10/14 00:47:40;;;;;;;3.28;0.70;;;;;;;;;;5073087;28;20044;-66
2023/10/14 00:53:09;;;;;;;4.55;1.13;;;;;;;;;;5011356;28;20046;-66
2023/10/14 00:58:12;;;;;;;5.97;1.25;;;;;;;;;;5073220;28;20527;-66
2023/10/14 01:01:17;;;;;;;5.50;0.90;;;;;;;;;;5073133;28;20047;-66
2023/10/14 01:03:32;;;;;;;8.00;1.38;;;;;;;;;;5051394;28;20060;-65
2023/10/14 01:08:49;;;;;;;7.65;1.15;;;;;;;;;;5073022;28;20099;-65
2023/10/14 01:11:17;;;;;;;8.38;1.27;;;;;;;;;;5072716;28;20040;-66
2023/10/14 01:13:47;;;;;;;8.55;1.27;;;;;;;;;;5072520;28;20086;-67
2023/10/14 01:16:15;;;;;;;6.43;1.13;;;;;;;;;;5055290;28;20407;-66
2023/10/14 01:18:44;;;;;;;6.00;1.20;;;;;;;;;;5073144;28;20044;-66
2023/10/14 01:21:12;;;;;;;7.53;1.33;;;;;;;;;;5054181;28;20040;-66
2023/10/14 01:23:39;;;;;;;7.25;1.60;;;;;;;;;;5054450;28;20052;-66
2023/10/14 01:26:09;;;;;;;10.40;1.65;;;;;;;;;;5073113;28;20040;-66
2023/10/14 01:28:42;;;;;;;7.93;1.30;;;;;;;;;;5072109;28;20384;-66
2023/10/14 01:31:23;;;;;;;8.63;1.60;;;;;;;;;;5054755;28;20106;-66
2023/10/14 01:33:49;;;;;;;5.88;1.65;;;;;;;;;;5072555;28;20086;-66
2023/10/14 01:36:15;;;;;;;8.35;1.30;;;;;;;;;;5054897;28;20086;-66
2023/10/14 01:38:49;;;;;;;6.63;1.58;;;;;;;;;;5054079;28;20082;-66
2023/10/14 01:41:15;;;;;;;8.35;1.27;;;;;;;;;;5072607;28;20036;-66
2023/10/14 01:43:41;;;;;;;5.32;1.33;;;;;;;;;;5072400;28;20464;-66
2023/10/14 01:46:10;;;;;;;4.13;1.20;;;;;;;;;;5072329;28;20090;-66
2023/10/14 01:48:39;;;;;;;4.70;1.35;;;;;;;;;;5054103;28;20049;-66
2023/10/14 01:51:05;;;;;;;9.07;1.48;;;;;;;;;;5055220;28;20065;-66
2023/10/14 01:53:32;;;;;;;5.55;1.48;;;;;;;;;;5072067;28;20053;-65
2023/10/14 01:56:00;;;;;;;7.75;1.48;;;;;;;;;;5072429;28;20086;-66
2023/10/14 01:58:29;;;;;;;8.35;1.30;;;;;;;;;;5053796;28;20503;-66
2023/10/14 02:01:00;;;;;;;6.70;1.40;;;;;;;;;;5071900;28;20043;-66
2023/10/14 02:03:33;;;;;;;5.50;1.17;;;;;;;;;;5071957;28;20111;-66
2023/10/14 02:06:02;;;;;;;4.55;1.00;;;;;;;;;;5071947;28;20400;-65
2023/10/14 02:08:28;;;;;;;7.93;1.48;;;;;;;;;;5054352;28;20051;-66
2023/10/14 02:10:54;;;;;;;6.88;1.55;;;;;;;;;;5053058;28;20072;-66
2023/10/14 02:13:21;;;;;;;10.80;1.73;;;;;;;;;;5071981;28;20048;-66
2023/10/14 02:15:47;;;;;;;9.20;1.60;;;;;;;;;;5053818;28;20094;-66
2023/10/14 02:18:16;;;;;;;11.70;1.80;;;;;;;;;;5071728;28;20041;-66
2023/10/14 02:20:57;;;;;;;10.80;1.77;;;;;;;;;;5071761;28;20067;-65
2023/10/14 02:23:25;;;;;;;7.35;1.00;;;;;;;;;;5072069;28;20041;-66
2023/10/14 02:25:55;;;;;;;11.38;1.75;;;;;;;;;;5053860;28;20123;-66
2023/10/14 02:28:21;;;;;;;;;;;;;;;;;;5071633;28;20438;-67
2023/10/14 02:30:51;;;;;;;8.70;1.60;;;;;;;;;;5071677;28;20002;-66
2023/10/14 02:33:18;;;;;;;8.43;1.45;;;;;;;;;;5053933;28;20076;-66
2023/10/14 02:35:44;;;;;;;7.95;1.65;;;;;;;;;;5071585;28;20086;-67
2023/10/14 02:38:11;;;;;;;6.43;1.80;;;;;;;;;;5071999;28;20044;-66
2023/10/14 02:40:40;;;;;;;6.88;1.20;;;;;;;;;;5074871;28;20381;-65
2023/10/14 02:43:06;;;;;;;8.07;1.58;;;;;;;;;;5078189;28;20115;-67
2023/10/14 02:45:37;;;;;;;9.43;1.65;;;;;;;;;;5077674;28;20048;-67
2023/10/14 02:48:04;;;;;;;7.97;1.83;;;;;;;;;;5060345;28;20044;-66
2023/10/14 02:50:32;;;;;;;10.20;1.55;;;;;;;;;;5043239;28;20474;-67
2023/10/14 02:53:06;;;;;;;7.72;1.85;;;;;;;;;;5059812;28;20563;-66
2023/10/14 02:55:50;;;;;;;9.10;1.58;;;;;;;;;;5077821;28;20048;-66
2023/10/14 02:58:20;;;;;;;7.05;1.75;;;;;;;;;;5078468;28;20048;-66
2023/10/14 03:00:49;;;;;;;11.15;2.13;;;;;;;;;;5077777;28;20492;-66
2023/10/14 03:03:15;;;;;;;5.63;1.52;;;;;;;;;;5078065;28;20119;-66
2023/10/14 03:05:53;;;;;;;9.40;1.88;;;;;;;;;;5059964;28;20048;-66
2023/10/14 03:08:20;;;;;;;11.90;1.73;;;;;;;;;;5060213;28;20051;-65
2023/10/14 03:10:54;;;;;;;10.15;1.80;;;;;;;;;;5059698;28;20105;-65
2023/10/14 03:13:22;;;;;;;8.05;2.05;;;;;;;;;;5060352;28;20048;-66
2023/10/14 03:15:52;;;;;;;11.00;2.00;;;;;;;;;;5059627;28;20480;-66
2023/10/14 03:18:19;;;;;;;6.97;1.55;;;;;;;;;;5077791;28;20487;-66
2023/10/14 03:21:00;;;;;;;11.57;1.95;;;;;;;;;;5077741;28;20106;-66
2023/10/14 03:23:27;;;;;;;5.55;1.20;;;;;;;;;;5077968;28;20097;-67
2023/10/14 03:26:01;;;;;;;7.20;1.30;;;;;;;;;;5059942;28;20044;-67
2023/10/14 03:28:27;;;;;;;6.60;1.52;;;;;;;;;;5108749;22;20046;-68
2023/10/14 03:30:58;;;;;;;7.28;1.50;;;;;;;;;;5079268;28;20032;-68
2023/10/14 03:33:24;;;;;;;;;;;;;;;;;;5090896;28;20040;-68
2023/10/14 03:35:57;;;;;;;8.23;1.60;;;;;;;;;;5076675;28;19943;-68
2023/10/14 03:38:26;;;;;;;6.25;1.50;;;;;;;;;;5094141;28;20450;-68
2023/10/14 03:41:03;;;;;;;11.60;1.98;;;;;;;;;;5076934;28;20457;-68
2023/10/14 03:43:44;;;;;;;10.88;1.83;;;;;;;;;;5083680;28;20063;-69
2023/10/14 03:46:12;;;;;;;;;;;;;;;;;;5080430;28;20052;-69
2023/10/14 03:48:48;;;;;;;9.13;1.50;;;;;;;;;;5084449;28;19916;-69
2023/10/14 03:53:52;;;;;;;11.38;1.77;;;;;;;;;;5076698;28;20409;-69
2023/10/14 03:56:18;;;;;;;12.07;2.00;;;;;;;;;;5086900;28;20036;-69
2023/10/14 03:58:46;;;;;;;10.35;1.88;;;;;;;;;;5079164;28;20043;-69
2023/10/14 04:01:13;;;;;;;9.77;1.67;;;;;;;;;;5075480;28;20040;-69
2023/10/14 04:03:51;;;;;;;8.70;1.30;;;;;;;;;;5079005;28;20036;-69
2023/10/14 04:06:19;;;;;;;7.95;1.98;;;;;;;;;;5076777;28;20459;-69
2023/10/14 04:08:48;;;;;;;7.15;1.70;;;;;;;;;;5071045;28;20073;-69
2023/10/14 04:11:25;;;;;;;9.80;1.67;;;;;;;;;;5074916;28;20394;-69
2023/10/14 04:13:58;;;;;;;4.88;1.33;;;;;;;;;;5069089;28;20517;-69
2023/10/14 04:16:28;;;;;;;11.00;1.83;;;;;;;;;;5073510;28;20037;-69
2023/10/14 04:19:04;;;;;;;5.70;1.45;;;;;;;;;;5073463;28;20048;-69
2023/10/14 04:21:36;;;;;;;12.27;2.30;;;;;;;;;;5073011;28;20032;-69
2023/10/14 04:24:19;;;;;;;11.55;1.85;;;;;;;;;;5053463;28;20097;-69
2023/10/14 04:26:48;;;;;;;9.85;1.70;;;;;;;;;;5070510;28;20044;-69
2023/10/14 04:29:34;;;;;;;16.80;1.92;;;;;;;;;;5072963;28;20406;-69
2023/10/14 04:32:07;;;;;;;9.82;1.80;;;;;;;;;;5069815;28;20083;-69
2023/10/14 04:34:35;;;;;;;8.55;1.55;;;;;;;;;;5072244;28;20434;-69
2023/10/14 04:37:07;;;;;;;12.90;1.83;;;;;;;;;;5054953;28;20044;-69
2023/10/14 04:39:42;;;;;;;9.52;1.67;;;;;;;;;;5072623;28;20037;-69
2023/10/14 04:44:59;;;;;;;10.05;1.60;;;;;;;;;;5068727;28;20410;-70
2023/10/14 04:47:47;;;;;;;11.95;1.60;;;;;;;;;;5066382;28;20047;-70
2023/10/14 04:50:14;;;;;;;6.50;1.45;;;;;;;;;;5075333;28;20079;-70
2023/10/14 04:52:41;;;;;;;6.68;1.60;;;;;;;;;;5071975;28;20490;-70
2023/10/14 04:55:28;;;;;;;10.95;1.73;;;;;;;;;;5072042;28;20052;-70
2023/10/14 05:00:38;;;;;;;9.95;1.70;;;;;;;;;;5069617;28;20067;-70
2023/10/14 05:03:05;;;;;;;8.82;2.10;;;;;;;;;;5072362;28;20036;-70
2023/10/14 05:05:34;;;;;;;8.00;1.40;;;;;;;;;;5054449;28;20467;-70
2023/10/14 05:08:03;;;;;;;9.35;1.45;;;;;;;;;;5072389;28;20040;-70
2023/10/14 05:10:29;;;;;;;10.23;1.67;;;;;;;;;;5071766;28;20071;-70
2023/10/14 05:12:56;;;;;;;9.10;1.55;;;;;;;;;;5071952;28;20033;-70
2023/10/14 05:15:26;;;;;;;6.60;1.73;;;;;;;;;;5072105;28;20410;-70
2023/10/14 05:18:03;;;;;;;10.80;1.80;;;;;;;;;;5072394;28;20044;-70
2023/10/14 05:20:54;;;;;;;12.55;1.50;;;;;;;;;;5079649;28;20493;-70
2023/10/14 05:23:19;;;;;;;12.35;2.05;;;;;;;;;;5069678;28;20059;-69
2023/10/14 05:25:48;;;;;;;10.43;2.03;;;;;;;;;;5073673;28;20051;-69
2023/10/14 05:28:15;;;;;;;7.82;1.70;;;;;;;;;;5072182;28;20494;-69
2023/10/14 05:30:46;;;;;;;8.60;1.58;;;;;;;;;;5081833;28;20035;-69
2023/10/14 05:33:14;;;;;;;14.80;2.40;;;;;;;;;;5071622;28;20517;-69
2023/10/14 05:35:40;;;;;;;9.30;1.55;;;;;;;;;;5072725;28;20119;-69
2023/10/14 05:38:10;;;;;;;7.28;1.48;;;;;;;;;;5072855;28;20055;-69
2023/10/14 05:40:45;;;;;;;7.55;1.40;;;;;;;;;;5072069;28;20040;-69
2023/10/14 05:43:10;;;;;;;12.18;1.67;;;;;;;;;;5072282;28;20036;-69
2023/10/14 05:45:37;;;;;;;11.10;1.58;;;;;;;;;;5054513;28;20039;-69
2023/10/14 05:48:04;;;;;;;7.32;1.40;;;;;;;;;;5071918;28;20397;-69
2023/10/14 05:50:30;;;;;;;10.70;1.70;;;;;;;;;;5072760;28;20055;-69
2023/10/14 05:52:56;;;;;;;8.70;1.55;;;;;;;;;;5069833;28;20106;-69
2023/10/14 05:55:22;;;;;;;7.82;1.33;;;;;;;;;;5053049;28;20036;-69
2023/10/14 05:57:49;;;;;;;12.35;1.85;;;;;;;;;;5053259;28;20032;-69
2023/10/14 06:00:22;;;;;;;10.43;1.50;;;;;;;;;;5077481;28;20437;-69
2023/10/14 06:02:49;;;;;;;10.23;1.48;;;;;;;;;;5071940;28;20464;-69
2023/10/14 06:05:18;;;;;;;9.05;1.90;;;;;;;;;;5056276;28;20036;-69
2023/10/14 06:07:48;;;;;;;11.98;1.67;;;;;;;;;;5072327;28;20047;-69
2023/10/14 06:10:20;;;;;;;10.82;1.65;;;;;;;;;;5073003;28;20082;-69
2023/10/14 06:12:46;;;;;;;7.60;1.70;;;;;;;;;;5072340;28;20040;-69
2023/10/14 06:15:16;;;;;;;8.73;1.33;;;;;;;;;;5079371;28;20100;-69
2023/10/14 06:17:42;;;;;;;10.18;1.60;;;;;;;;;;5072052;28;20516;-69
2023/10/14 06:20:08;;;;;;;10.18;1.90;;;;;;;;;;5073378;28;20032;-69
2023/10/14 06:22:35;;;;;;;10.50;1.52;;;;;;;;;;5074374;28;20036;-69
2023/10/14 06:25:01;;;;;;;10.80;1.63;;;;;;;;;;5072454;28;20048;-69
2023/10/14 06:27:27;;;;;;;7.78;1.65;;;;;;;;;;5071768;28;20116;-69
2023/10/14 06:29:55;;;;;;;9.68;1.73;;;;;;;;;;5070201;28;20109;-69
2023/10/14 06:32:21;;;;;;;7.95;1.38;;;;;;;;;;5072886;28;20041;-69
2023/10/14 06:34:57;;;;;;;10.63;2.00;;;;;;;;;;5072899;28;20040;-69
2023/10/14 06:37:24;;;;;;;9.25;1.50;;;;;;;;;;5072336;28;20398;-69
2023/10/14 06:39:50;;;;;;;9.50;1.75;;;;;;;;;;5072558;28;20043;-69
2023/10/14 06:42:19;;;;;;;14.88;1.98;;;;;;;;;;5071975;28;20410;-69
2023/10/14 06:44:45;;;;;;;10.13;1.80;;;;;;;;;;5076768;28;20043;-69
2023/10/14 06:47:11;;;;;;;10.15;1.75;;;;;;;;;;5079773;28;20425;-69
2023/10/14 06:49:41;;;;;;;10.20;1.85;;;;;;;;;;5077148;28;20036;-70
2023/10/14 06:52:11;;;;;;;7.85;1.48;;;;;;;;;;5071916;28;20191;-70
2023/10/14 06:54:37;;;;;;;10.13;1.67;;;;;;;;;;5075722;28;20051;-70
2023/10/14 06:57:07;;;;;;;10.68;1.95;;;;;;;;;;5071674;28;20037;-70
2023/10/14 06:59:35;;;;;;;10.73;2.10;;;;;;;;;;5066212;28;20406;-70
2023/10/14 07:02:02;;;;;;;11.52;2.00;;;;;;;;;;5069037;28;20048;-70
2023/10/14 07:04:27;;;;;;;10.00;1.60;;;;;;;;;;5070148;28;20032;-70
2023/10/14 07:06:58;;;;;;;9.65;1.92;;;;;;;;;;5071231;28;20499;-70
2023/10/14 07:09:27;;;;;;;10.88;1.65;;;;;;;;;;5053397;28;20044;-70
2023/10/14 07:11:57;;;;;;;9.82;1.90;;;;;;;;;;5071314;28;20041;-70
2023/10/14 07:14:23;;;;;;;12.05;1.70;;;;;;;;;;5066610;28;20517;-70
2023/10/14 07:16:50;;;;;;;12.82;2.28;;;;;;;;;;5072024;28;20039;-70
2023/10/14 07:19:17;;;;;;;13.80;1.77;;;;;;;;;;5072408;28;20502;-70
2023/10/14 07:21:43;;;;;;;11.15;1.45;;;;;;;;;;5072527;28;20111;-70
2023/10/14 07:24:14;;;;;;;12.45;1.95;;;;;;;;;;5072864;28;20040;-70
2023/10/14 07:26:40;;;;;;;11.85;2.00;;;;;;;;;;5055444;28;20101;-70
2023/10/14 07:29:06;;;;;;;8.50;1.60;;;;;;;;;;5075846;28;20044;-70
2023/10/14 07:31:36;;;;;;;11.95;2.08;;;;;;;;;;5074439;28;20036;-70
2023/10/14 07:34:02;;;;;;;14.68;2.28;;;;;;;;;;5074703;28;20044;-69
2023/10/14 07:36:31;;;;;;;8.10;1.75;;;;;;;;;;5069705;28;20398;-69
2023/10/14 07:39:02;;;;;;;12.20;2.33;;;;;;;;;;5072270;28;20045;-69
2023/10/14 07:41:28;;;;;;;13.45;1.80;;;;;;;;;;5059076;28;20045;-69
2023/10/14 07:43:54;;;;;;;12.15;2.10;;;;;;;;;;5057110;28;20082;-69
2023/10/14 07:46:21;;;;;;;8.57;2.40;;;;;;;;;;5074423;28;20041;-69
2023/10/14 07:48:47;;;;;;;9.73;1.70;;;;;;;;;;5074486;28;20032;-69
2023/10/14 07:51:16;;;;;;;8.80;1.80;;;;;;;;;;5075212;28;20040;-69
2023/10/14 07:53:43;;;;;;;15.85;2.08;;;;;;;;;;5081388;28;20115;-69
2023/10/14 07:56:09;;;;;;;13.82;2.70;;;;;;;;;;5062995;28;20079;-69
2023/10/14 07:58:36;;;;;;;13.52;2.00;;;;;;;;;;5073696;28;20036;-69
2023/10/14 08:01:06;;;;;;;10.70;1.85;;;;;;;;;;5074433;28;20052;-69
2023/10/14 08:03:32;;;;;;;12.40;2.10;;;;;;;;;;5073685;28;20042;-69
2023/10/14 08:06:05;;;;;;;10.48;1.92;;;;;;;;;;5056198;28;20420;-69
2023/10/14 08:08:31;;;;;;;12.00;2.25;;;;;;;;;;5069144;28;20486;-69
2023/10/14 08:11:01;;;;;;;12.85;2.28;;;;;;;;;;5072491;28;20044;-69
2023/10/14 08:13:31;;;;;;;12.65;2.00;;;;;;;;;;5074311;28;20036;-69
2023/10/14 08:15:57;;;;;;;7.90;2.03;;;;;;;;;;5074936;28;20060;-69
2023/10/14 08:18:24;;;;;;;16.38;2.30;;;;;;;;;;5074099;28;20044;-69
2023/10/14 08:20:53;;;;;;;12.98;1.80;;;;;;;;;;5056787;28;20397;-69
2023/10/14 08:23:20;;;;;;;10.60;1.77;;;;;;;;;;5074685;28;20085;-69
2023/10/14 08:25:47;;;;;;;13.15;2.03;;;;;;;;;;5070934;28;20123;-69
2023/10/14 08:28:13;;;;;;;16.58;2.97;;;;;;;;;;5055080;28;20052;-69
2023/10/14 08:30:46;;;;;;;10.18;1.50;;;;;;;;;;5056280;28;20044;-69
2023/10/14 08:33:12;;;;;;;11.07;2.38;;;;;;;;;;5076324;28;20044;-69
2023/10/14 08:35:44;;;;;;;10.43;2.10;;;;;;;;;;5074221;28;20037;-69
2023/10/14 08:38:12;;;;;;;12.63;2.08;;;;;;;;;;5073918;28;20508;-69
2023/10/14 08:40:39;;;;;;;11.13;2.08;;;;;;;;;;5052783;28;20040;-69
2023/10/14 08:43:06;;;;;;;10.35;2.08;;;;;;;;;;5072275;28;20048;-69
2023/10/14 08:45:36;;;;;;;11.80;2.10;;;;;;;;;;5072110;28;20131;-69
2023/10/14 08:48:03;;;;;;;13.15;2.25;;;;;;;;;;5074275;28;20043;-69
2023/10/14 08:50:32;;;;;;;10.70;2.20;;;;;;;;;;5074113;28;20461;-69
2023/10/14 08:53:00;;;;;;;7.70;1.85;;;;;;;;;;5076595;28;20074;-69
2023/10/14 08:55:28;;;;;;;13.15;1.90;;;;;;;;;;5068796;28;20090;-69
2023/10/14 08:57:58;;;;;;;7.93;1.52;;;;;;;;;;5074659;28;20509;-69
2023/10/14 09:00:24;;;;;;;10.50;2.10;;;;;;;;;;5066510;28;20111;-69
2023/10/14 09:02:53;;;;;;;13.45;2.20;;;;;;;;;;5073002;28;20516;-69
2023/10/14 09:05:19;;;;;;;10.77;2.25;;;;;;;;;;5071808;28;20060;-70
2023/10/14 09:07:45;;;;;;;10.55;2.35;;;;;;;;;;5075411;28;20044;-69
2023/10/14 09:10:11;;;;;;;12.75;2.67;;;;;;;;;;5074455;28;20428;-69
2023/10/14 09:12:38;;;;;;;19.00;2.63;;;;;;;;;;5073136;28;20095;-69
2023/10/14 09:15:04;;;;;;;15.98;2.13;;;;;;;;;;5070849;28;20044;-69
2023/10/14 09:17:30;;;;;;;11.73;2.20;;;;;;;;;;5052494;28;20036;-69
2023/10/14 09:19:56;;;;;;;9.93;1.63;;;;;;;;;;5069560;28;20071;-69
2023/10/14 09:22:24;;;;;;;14.25;2.75;;;;;;;;;;5070542;28;20044;-69
2023/10/14 09:24:50;;;;;;;13.30;1.88;;;;;;;;;;5067347;28;20040;-69
2023/10/14 09:27:17;;;;;;;11.70;2.30;;;;;;;;;;5089258;22;20036;-65
2023/10/14 09:29:43;;;;;;;8.63;2.08;;;;;;;;;;5071307;28;20039;-65
2023/10/14 09:32:09;;;;;;;11.70;2.65;;;;;;;;;;5064985;28;20433;-66
2023/10/14 09:34:35;;;;;;;11.10;2.72;;;;;;;;;;5080748;22;20059;-67
2023/10/14 09:37:10;;;;;;;11.35;1.90;;;;;;;;;;5039270;28;20048;-65
2023/10/14 09:39:39;;;;;;;9.88;1.50;;;;;;;;;;5051409;28;20531;-67
2023/10/14 09:42:06;;;;;;;12.05;1.70;;;;;;;;;;5063012;28;20504;-67
2023/10/14 09:44:33;;;;;;;10.23;1.83;;;;;;;;;;5047918;28;20123;-67
2023/10/14 09:46:59;;;;;;;15.98;1.73;;;;;;;;;;5044462;28;20098;-67
2023/10/14 09:49:26;;;;;;;10.98;2.03;;;;;;;;;;5050033;28;20132;-67
2023/10/14 09:51:53;;;;;;;10.32;1.95;;;;;;;;;;5047617;28;20043;-67
2023/10/14 09:54:21;;;;;;;12.88;1.80;;;;;;;;;;5064807;28;20051;-68
2023/10/14 09:56:50;;;;;;;8.68;2.33;;;;;;;;;;5051967;28;20048;-66
2023/10/14 09:59:16;;;;;;;9.45;2.08;;;;;;;;;;5066768;28;20040;-68
2023/10/14 10:01:43;;;;;;;9.60;1.90;;;;;;;;;;5035675;28;20060;-66
2023/10/14 10:04:12;;;;;;;13.80;1.90;;;;;;;;;;5049781;28;20048;-66
2023/10/14 10:06:47;;;;;;;5.85;1.60;;;;;;;;;;5069702;28;20036;-66
2023/10/14 10:09:34;;;;;;;10.82;1.83;;;;;;;;;;5052389;28;20063;-66
2023/10/14 10:12:04;;;;;;;11.80;1.85;;;;;;;;;;5070826;28;20127;-65
2023/10/14 10:14:30;;;;;;;14.05;1.63;;;;;;;;;;5064287;28;20101;-66
2023/10/14 10:16:57;;;;;;;6.97;1.42;;;;;;;;;;5047288;28;20135;-66
2023/10/14 10:19:24;;;;;;;8.20;1.40;;;;;;;;;;5050903;28;20418;-66
2023/10/14 10:22:09;;;;;;;10.63;1.95;;;;;;;;;;5051531;28;20029;-66
2023/10/14 10:24:35;;;;;;;7.57;1.42;;;;;;;;;;5041363;28;20385;-66
2023/10/14 10:27:04;;;;;;;8.73;1.33;;;;;;;;;;5050458;28;20055;-66
2023/10/14 10:29:33;;;;;;;6.00;1.08;;;;;;;;;;5064751;28;20032;-66
2023/10/14 10:32:07;;;;;;;3.53;1.00;;;;;;;;;;5070318;28;20123;-66
2023/10/14 10:34:35;;;;;;;6.28;1.10;;;;;;;;;;5047633;28;20377;-66
2023/10/14 10:37:04;;;;;;;4.90;1.23;;;;;;;;;;5052964;28;20488;-66
2023/10/14 10:39:31;;;;;;;4.20;1.00;;;;;;;;;;5046052;28;20032;-66
2023/10/14 10:41:57;;;;;;;6.55;1.15;;;;;;;;;;5052260;28;20047;-66
2023/10/14 10:44:27;;;;;;;6.30;1.05;;;;;;;;;;5051895;28;20082;-66
2023/10/14 10:47:00;;;;;;;6.45;1.40;;;;;;;;;;5051932;28;20048;-66
2023/10/14 10:49:44;;;;;;;4.25;1.08;;;;;;;;;;5047206;28;20040;-65
2023/10/14 10:52:14;;;;;;;6.28;1.58;;;;;;;;;;5051959;28;20546;-66
2023/10/14 10:54:44;;;;;;;7.20;1.08;;;;;;;;;;5051836;28;20036;-66
2023/10/14 10:57:11;;;;;;;6.20;1.10;;;;;;;;;;5069315;28;20101;-66
2023/10/14 10:59:37;;;;;;;7.82;1.27;;;;;;;;;;5047246;28;20036;-65
2023/10/14 11:02:18;;;;;;;10.18;1.67;;;;;;;;;;5054550;28;20235;-66
2023/10/14 11:04:45;;;;;;;9.23;1.35;;;;;;;;;;5070977;28;20087;-66
2023/10/14 11:07:12;;;;;;;9.98;1.27;;;;;;;;;;5074366;28;20076;-66
2023/10/14 11:09:41;;;;;;;5.13;1.60;;;;;;;;;;5054286;28;20048;-66
2023/10/14 11:12:10;;;;;;;11.10;1.33;;;;;;;;;;5053847;28;20051;-66
2023/10/14 11:14:37;;;;;;;10.00;1.85;;;;;;;;;;5050825;28;20044;-65
2023/10/14 11:17:04;;;;;;;12.70;1.40;;;;;;;;;;5050956;28;20114;-65
2023/10/14 11:19:30;;;;;;;9.27;1.67;;;;;;;;;;5073947;28;20045;-65
2023/10/14 11:21:59;;;;;;;6.70;1.50;;;;;;;;;;5054248;28;20084;-66
2023/10/14 11:24:26;;;;;;;8.48;1.27;;;;;;;;;;5054932;28;20042;-65
2023/10/14 11:26:53;;;;;;;7.30;1.75;;;;;;;;;;5055252;28;20369;-65
2023/10/14 11:29:23;;;;;;;10.73;1.40;;;;;;;;;;5072323;28;20036;-65
2023/10/14 11:31:53;;;;;;;6.97;1.20;;;;;;;;;;5054154;28;20051;-66
2023/10/14 11:34:20;;;;;;;9.55;1.60;;;;;;;;;;5049018;28;20518;-66
2023/10/14 11:36:48;;;;;;;9.73;1.45;;;;;;;;;;5055904;28;20117;-66
2023/10/14 11:39:16;;;;;;;8.32;1.58;;;;;;;;;;5052745;28;20119;-66
2023/10/14 11:41:42;;;;;;;8.57;1.52;;;;;;;;;;5054150;28;20103;-66
2023/10/14 11:44:08;;;;;;;4.50;1.00;;;;;;;;;;5033297;28;20044;-66
2023/10/14 11:46:40;;;;;;;12.85;2.28;;;;;;;;;;5053248;28;20060;-66
2023/10/14 11:49:13;;;;;;;9.00;1.38;;;;;;;;;;5052845;28;20106;-66
2023/10/14 11:51:43;;;;;;;5.85;1.20;;;;;;;;;;5051523;28;20511;-66
2023/10/14 11:54:12;;;;;;;8.88;1.50;;;;;;;;;;5050030;28;20044;-66
2023/10/14 11:56:41;;;;;;;7.55;1.00;;;;;;;;;;5049287;28;20068;-66
2023/10/14 11:59:08;;;;;;;5.82;0.98;;;;;;;;;;5049621;28;20032;-66
2023/10/14 12:01:34;;;;;;;7.35;1.02;;;;;;;;;;5051183;28;20056;-66
2023/10/14 12:04:03;;;;;;;4.63;0.77;;;;;;;;;;5054569;28;20052;-66
2023/10/14 12:06:30;;;;;;;5.70;1.20;;;;;;;;;;5051943;28;20188;-66
2023/10/14 12:08:57;;;;;;;6.57;0.95;;;;;;;;;;5055302;28;20040;-66
2023/10/14 12:11:24;;;;;;;5.35;0.93;;;;;;;;;;5060886;28;20082;-66
2023/10/14 12:13:50;;;;;;;5.22;1.25;;;;;;;;;;5052560;28;20040;-66
2023/10/14 12:16:17;;;;;;;5.80;1.20;;;;;;;;;;5054205;28;20048;-66
2023/10/14 12:18:45;;;;;;;5.63;0.95;;;;;;;;;;5052118;28;20044;-66
2023/10/14 12:21:11;;;;;;;7.78;1.30;;;;;;;;;;5042383;28;20048;-66
2023/10/14 12:23:38;;;;;;;7.20;1.15;;;;;;;;;;5053501;28;20062;-66
2023/10/14 12:26:04;;;;;;;7.22;1.17;;;;;;;;;;5051379;28;20203;-66
2023/10/14 12:28:30;;;;;;;7.38;1.08;;;;;;;;;;5050767;28;20652;-66
2023/10/14 12:31:06;;;;;;;4.85;0.95;;;;;;;;;;5050543;28;20048;-66
2023/10/14 12:33:32;;;;;;;6.50;1.15;;;;;;;;;;5048039;28;20048;-66
2023/10/14 12:36:00;;;;;;;11.55;2.75;;;;;;;;;;5052209;28;20055;-66
2023/10/14 12:38:27;;;;;;;4.22;1.05;;;;;;;;;;5052838;28;20044;-66
2023/10/14 12:40:54;;;;;;;6.78;1.40;;;;;;;;;;5048904;28;20123;-66
2023/10/14 12:43:33;;;;;;;9.13;1.50;;;;;;;;;;5053051;28;20072;-66
2023/10/14 12:46:09;;;;;;;10.55;1.42;;;;;;;;;;5044377;28;20221;-66
2023/10/14 12:48:39;;;;;;;6.93;1.20;;;;;;;;;;5059831;28;20511;-66
2023/10/14 12:51:07;;;;;;;9.20;1.30;;;;;;;;;;5061692;28;20044;-66
2023/10/14 12:53:33;;;;;;;8.38;1.60;;;;;;;;;;5049422;28;20040;-65
2023/10/14 12:55:59;;;;;;;7.20;1.50;;;;;;;;;;5066141;28;20036;-66
2023/10/14 12:58:25;;;;;;;4.95;1.02;;;;;;;;;;5067318;28;20056;-66
2023/10/14 13:00:51;;;;;;;7.07;1.40;;;;;;;;;;5052662;28;20127;-66
2023/10/14 13:03:17;;;;;;;10.80;1.48;;;;;;;;;;5053293;28;20572;-65
2023/10/14 13:05:48;;;;;;;7.65;1.48;;;;;;;;;;5068621;28;20043;-66
2023/10/14 13:08:19;;;;;;;8.32;1.42;;;;;;;;;;5044268;28;20045;-65
2023/10/14 13:10:45;;;;;;;9.60;1.70;;;;;;;;;;5049943;28;20084;-65
2023/10/14 13:13:13;;;;;;;10.65;1.70;;;;;;;;;;5062771;28;20729;-65
2023/10/14 13:15:39;;;;;;;9.90;1.50;;;;;;;;;;5025236;28;20396;-65
2023/10/14 13:18:06;;;;;;;6.80;1.15;;;;;;;;;;5046851;28;20059;-65
2023/10/14 13:20:36;;;;;;;9.57;2.25;;;;;;;;;;5047741;28;20094;-65
2023/10/14 13:23:07;;;;;;;7.00;1.42;;;;;;;;;;5039189;28;20045;-66
2023/10/14 13:25:37;;;;;;;4.75;1.50;;;;;;;;;;5049883;28;20037;-65
2023/10/14 13:28:08;;;;;;;13.38;1.92;;;;;;;;;;5046853;28;20053;-65
2023/10/14 13:30:34;;;;;;;6.03;1.33;;;;;;;;;;5057088;28;20053;-66
2023/10/14 13:33:01;;;;;;;9.30;1.67;;;;;;;;;;5047996;28;20041;-65
2023/10/14 13:35:27;;;;;;;9.05;2.00;;;;;;;;;;5046346;28;20028;-65
2023/10/14 13:37:54;;;;;;;9.35;1.38;;;;;;;;;;5044883;28;20048;-65
2023/10/14 13:40:21;;;;;;;5.70;1.65;;;;;;;;;;5049325;28;20045;-65
2023/10/14 13:42:48;;;;;;;10.02;1.92;;;;;;;;;;5065141;28;20032;-65
2023/10/14 13:45:16;;;;;;;8.13;1.50;;;;;;;;;;5064990;28;20114;-65
2023/10/14 13:47:42;;;;;;;8.77;1.98;;;;;;;;;;5046547;28;20503;-65
2023/10/14 13:50:11;;;;;;;10.25;1.92;;;;;;;;;;5051436;28;20128;-65
2023/10/14 13:52:38;;;;;;;8.25;1.63;;;;;;;;;;5051038;28;20400;-64
2023/10/14 13:55:04;;;;;;;6.13;1.58;;;;;;;;;;5052775;28;20051;-65
2023/10/14 13:57:32;;;;;;;7.07;1.73;;;;;;;;;;5070087;28;20447;-65
2023/10/14 13:59:58;;;;;;;5.38;1.42;;;;;;;;;;5069247;28;20047;-65
2023/10/14 14:02:24;;;;;;;7.75;1.50;;;;;;;;;;5052757;28;20063;-65
2023/10/14 14:04:50;;;;;;;11.40;1.65;;;;;;;;;;5070206;28;20121;-65
2023/10/14 14:07:16;;;;;;;7.63;1.85;;;;;;;;;;5070206;28;20549;-65
2023/10/14 14:09:42;;;;;;;7.28;1.30;;;;;;;;;;5052210;28;20119;-65
2023/10/14 14:12:08;;;;;;;9.35;1.52;;;;;;;;;;5048218;28;20070;-65
2023/10/14 14:14:36;;;;;;;8.88;1.95;;;;;;;;;;5046388;28;20094;-65
2023/10/14 14:17:06;;;;;;;12.23;1.73;;;;;;;;;;5052557;28;20051;-65
2023/10/14 14:19:32;;;;;;;7.97;2.10;;;;;;;;;;5051977;28;20036;-65
2023/10/14 14:21:59;;;;;;;9.60;1.38;;;;;;;;;;5065894;28;20451;-65
2023/10/14 14:24:25;;;;;;;13.23;1.83;;;;;;;;;;5066090;28;20048;-65
2023/10/14 14:26:54;;;;;;;8.73;1.55;;;;;;;;;;5052522;28;20044;-65
2023/10/14 14:29:21;;;;;;;10.15;2.00;;;;;;;;;;5045615;28;20056;-65
2023/10/14 14:31:49;;;;;;;13.38;1.52;;;;;;;;;;5067843;28;20071;-65
2023/10/14 14:34:15;;;;;;;11.25;1.70;;;;;;;;;;5029106;28;20088;-65
2023/10/14 14:36:44;;;;;;;6.88;1.45;;;;;;;;;;5059402;28;20071;-65
2023/10/14 14:39:15;;;;;;;7.72;1.33;;;;;;;;;;5048628;28;20076;-65
2023/10/14 14:41:44;;;;;;;12.80;1.92;;;;;;;;;;5050079;28;20048;-65
2023/10/14 14:44:10;;;;;;;9.52;1.55;;;;;;;;;;5062797;28;20047;-65
2023/10/14 14:46:36;;;;;;;4.25;0.98;;;;;;;;;;5048152;28;20504;-65
2023/10/14 14:49:03;;;;;;;5.32;1.10;;;;;;;;;;5043398;28;20037;-65
2023/10/14 14:51:29;;;;;;;8.05;1.05;;;;;;;;;;5063586;28;20180;-65
2023/10/14 14:53:55;;;;;;;6.80;1.35;;;;;;;;;;5065049;28;20044;-65
2023/10/14 14:56:21;;;;;;;4.30;1.25;;;;;;;;;;5060012;28;20466;-65
2023/10/14 14:58:48;;;;;;;7.57;1.60;;;;;;;;;;5065096;28;20064;-65
2023/10/14 15:01:23;;;;;;;10.55;1.50;;;;;;;;;;5065450;28;20500;-65
2023/10/14 15:03:51;;;;;;;8.77;1.52;;;;;;;;;;5066133;28;20091;-65